createdAt,value
2022-11-16T00:00:10.542Z,21.03
2022-11-16T00:03:34.923Z,21.02
2022-11-16T00:06:40.573Z,21.04
2022-11-16T00:09:43.844Z,21.02
2022-11-16T00:12:47.612Z,21.02
2022-11-16T00:15:57.907Z,21.05
2022-11-16T00:19:06.401Z,21.02
2022-11-16T00:22:11.137Z,21.02
2022-11-16T00:25:15.219Z,20.99
2022-11-16T00:28:19.087Z,21.01
2022-11-16T00:31:24.413Z,21.00
2022-11-16T00:34:27.852Z,20.98
2022-11-16T00:37:33.017Z,21.00
2022-11-16T00:40:36.324Z,20.98
2022-11-16T00:43:40.491Z,20.99
2022-11-16T00:46:44.510Z,20.98
2022-11-16T00:49:48.384Z,20.96
2022-11-16T00:52:54.952Z,21.01
2022-11-16T00:55:59.961Z,20.97
2022-11-16T00:59:05.608Z,20.98
2022-11-16T01:02:09.648Z,20.96
2022-11-16T01:05:15.272Z,20.97
2022-11-16T01:08:20.627Z,20.98
2022-11-16T01:11:37.971Z,20.96
2022-11-16T01:14:45.185Z,20.96
2022-11-16T01:17:49.358Z,20.96
2022-11-16T01:20:54.380Z,20.96
2022-11-16T01:23:59.093Z,20.99
2022-11-16T01:27:02.924Z,20.98
2022-11-16T01:30:13.619Z,20.99
2022-11-16T01:33:23.398Z,20.98
2022-11-16T01:36:27.570Z,21.01
2022-11-16T01:39:34.542Z,21.03
2022-11-16T01:42:39.379Z,21.01
2022-11-16T01:45:43.429Z,21.00
2022-11-16T01:48:55.796Z,21.01
2022-11-16T01:52:05.610Z,21.01
2022-11-16T01:55:14.224Z,21.00
2022-11-16T01:58:28.690Z,20.98
2022-11-16T02:01:38.353Z,20.96
2022-11-16T02:04:43.256Z,20.99
2022-11-16T02:08:35.548Z,21.03
2022-11-16T02:12:09.768Z,20.99
2022-11-16T02:15:26.394Z,20.97
2022-11-16T02:18:53.724Z,20.99
2022-11-16T02:22:15.863Z,20.99
2022-11-16T02:25:31.861Z,20.98
2022-11-16T02:28:53.366Z,20.98
2022-11-16T02:32:10.008Z,20.96
2022-11-16T02:35:21.687Z,20.95
2022-11-16T02:38:33.233Z,20.98
2022-11-16T02:41:43.935Z,20.98
2022-11-16T02:44:55.436Z,20.96
2022-11-16T02:48:10.159Z,20.97
2022-11-16T02:51:15.937Z,20.94
2022-11-16T02:54:23.765Z,20.96
2022-11-16T02:57:45.525Z,20.98
2022-11-16T03:01:01.648Z,20.93
2022-11-16T03:04:18.459Z,20.93
2022-11-16T03:07:30.563Z,20.90
2022-11-16T03:10:57.860Z,20.90
2022-11-16T03:14:08.989Z,20.89
2022-11-16T03:17:23.019Z,20.88
2022-11-16T03:20:33.283Z,20.87
2022-11-16T03:23:37.026Z,20.85
2022-11-16T03:26:51.947Z,20.87
2022-11-16T03:30:06.198Z,20.84
2022-11-16T03:33:20.569Z,20.83
2022-11-16T03:36:33.623Z,20.83
2022-11-16T03:39:40.537Z,20.82
2022-11-16T03:42:49.463Z,20.81
2022-11-16T03:45:53.282Z,20.79
2022-11-16T03:49:01.840Z,20.81
2022-11-16T03:52:10.398Z,20.78
2022-11-16T03:55:13.843Z,20.77
2022-11-16T03:58:19.446Z,20.77
2022-11-16T04:01:23.566Z,20.77
2022-11-16T04:04:44.616Z,20.76
2022-11-16T04:08:08.062Z,20.75
2022-11-16T04:11:32.584Z,20.74
2022-11-16T04:14:54.396Z,20.71
2022-11-16T04:18:16.410Z,20.70
2022-11-16T04:21:44.565Z,20.71
2022-11-16T04:24:55.872Z,20.69
2022-11-16T04:28:16.456Z,20.66
2022-11-16T04:31:42.881Z,20.66
2022-11-16T04:35:05.911Z,20.64
2022-11-16T04:38:09.215Z,20.64
2022-11-16T04:41:28.982Z,20.67
2022-11-16T04:44:54.263Z,20.67
2022-11-16T04:48:00.169Z,20.62
2022-11-16T04:51:07.558Z,20.63
2022-11-16T04:54:12.032Z,20.65
2022-11-16T04:57:16.862Z,20.68
2022-11-16T05:00:22.713Z,20.66
2022-11-16T05:03:26.622Z,20.63
2022-11-16T05:06:30.090Z,20.66
2022-11-16T05:09:33.181Z,20.66
2022-11-16T05:12:38.879Z,20.67
2022-11-16T05:15:46.492Z,20.65
2022-11-16T05:19:10.344Z,20.62
2022-11-16T05:22:13.089Z,20.59
2022-11-16T05:25:17.181Z,20.60
2022-11-16T05:28:21.631Z,20.60
2022-11-16T05:31:25.404Z,20.58
2022-11-16T05:34:29.347Z,20.58
2022-11-16T05:37:32.944Z,20.57
2022-11-16T05:40:35.968Z,20.56
2022-11-16T05:43:41.062Z,20.58
2022-11-16T05:46:50.613Z,20.56
2022-11-16T05:49:55.531Z,20.56
2022-11-16T05:53:00.803Z,20.57
2022-11-16T05:56:04.869Z,20.58
2022-11-16T05:59:16.584Z,20.59
2022-11-16T06:02:21.208Z,20.56
2022-11-16T06:05:24.893Z,20.56
2022-11-16T06:08:29.281Z,20.57
2022-11-16T06:11:37.542Z,20.56
2022-11-16T06:14:43.671Z,20.58
2022-11-16T06:17:46.854Z,20.55
2022-11-16T06:20:50.461Z,20.57
2022-11-16T06:23:56.262Z,20.59
2022-11-16T06:26:59.897Z,20.61
2022-11-16T06:30:06.156Z,20.66
2022-11-16T06:33:10.104Z,20.66
2022-11-16T06:36:14.494Z,20.67
2022-11-16T06:39:18.165Z,20.70
2022-11-16T06:42:22.948Z,20.69
2022-11-16T06:45:28.485Z,20.74
2022-11-16T06:48:34.768Z,20.77
2022-11-16T06:51:41.226Z,20.83
2022-11-16T06:54:45.014Z,20.91
2022-11-16T06:57:48.864Z,21.03
2022-11-16T07:00:53.979Z,21.11
2022-11-16T07:03:57.946Z,21.08
2022-11-16T07:07:01.459Z,21.05
2022-11-16T07:10:06.081Z,21.00
2022-11-16T07:13:09.027Z,20.98
2022-11-16T07:16:16.647Z,20.96
2022-11-16T07:19:26.665Z,20.92
2022-11-16T07:22:30.386Z,20.92
2022-11-16T07:25:35.082Z,20.90
2022-11-16T07:28:45.037Z,20.91
2022-11-16T07:31:53.830Z,20.95
2022-11-16T07:35:12.643Z,20.97
2022-11-16T07:38:18.181Z,20.99
2022-11-16T07:41:22.619Z,20.99
2022-11-16T07:44:35.831Z,21.00
2022-11-16T07:47:47.954Z,21.01
2022-11-16T07:51:02.964Z,21.00
2022-11-16T07:54:08.267Z,20.96
2022-11-16T07:57:11.624Z,20.99
2022-11-16T08:00:19.128Z,21.03
2022-11-16T08:03:32.122Z,21.02
2022-11-16T08:06:35.843Z,20.99
2022-11-16T08:09:40.890Z,20.99
2022-11-16T08:12:48.188Z,20.96
2022-11-16T08:15:53.590Z,20.96
2022-11-16T08:18:59.263Z,20.98
2022-11-16T08:22:02.640Z,21.00
2022-11-16T08:25:09.481Z,21.03
2022-11-16T08:28:14.632Z,21.06
2022-11-16T08:31:24.808Z,21.12
2022-11-16T08:34:35.353Z,21.16
2022-11-16T08:37:40.791Z,21.17
2022-11-16T08:40:46.765Z,21.19
2022-11-16T08:43:53.246Z,21.22
2022-11-16T08:46:58.327Z,21.23
2022-11-16T08:50:11.434Z,21.26
2022-11-16T08:53:15.527Z,21.26
2022-11-16T08:56:20.284Z,21.26
2022-11-16T08:59:23.956Z,21.25
2022-11-16T09:02:31.594Z,21.25
2022-11-16T09:05:36.462Z,21.25
2022-11-16T09:08:43.929Z,21.28
2022-11-16T09:11:47.404Z,21.31
2022-11-16T09:14:51.055Z,21.37
2022-11-16T09:17:55.057Z,21.40
2022-11-16T09:21:00.465Z,21.43
2022-11-16T09:24:04.022Z,21.43
2022-11-16T09:27:07.844Z,21.46
2022-11-16T09:30:12.773Z,21.48
2022-11-16T09:33:16.861Z,21.47
2022-11-16T09:36:21.607Z,21.48
2022-11-16T09:39:31.040Z,21.44
2022-11-16T09:42:58.524Z,21.47
2022-11-16T09:46:21.724Z,21.44
2022-11-16T09:49:29.985Z,21.40
2022-11-16T09:52:42.688Z,21.42
2022-11-16T09:55:52.060Z,21.42
2022-11-16T09:59:05.073Z,21.42
2022-11-16T10:02:25.050Z,21.44
2022-11-16T10:05:38.489Z,21.37
2022-11-16T10:08:47.894Z,21.34
2022-11-16T10:12:11.415Z,21.32
2022-11-16T10:15:43.212Z,21.29
2022-11-16T10:18:59.187Z,21.26
2022-11-16T10:22:22.715Z,21.24
2022-11-16T10:25:43.522Z,21.21
2022-11-16T10:29:14.952Z,21.21
2022-11-16T10:32:28.240Z,21.15
2022-11-16T10:35:40.335Z,21.13
2022-11-16T10:38:45.559Z,21.10
2022-11-16T10:41:51.478Z,21.11
2022-11-16T10:45:07.539Z,21.11
2022-11-16T10:48:32.505Z,21.11
2022-11-16T10:51:36.497Z,21.06
2022-11-16T10:54:44.052Z,21.07
2022-11-16T10:58:02.020Z,21.11
2022-11-16T11:01:12.259Z,21.07
2022-11-16T11:04:25.087Z,21.08
2022-11-16T11:07:33.677Z,21.04
2022-11-16T11:10:40.294Z,21.03
2022-11-16T11:13:45.119Z,21.04
2022-11-16T11:16:53.953Z,21.05
2022-11-16T11:20:00.857Z,21.03
2022-11-16T11:23:15.170Z,21.01
2022-11-16T11:26:36.899Z,21.05
2022-11-16T11:29:44.106Z,20.99
2022-11-16T11:32:49.579Z,20.98
2022-11-16T11:36:08.485Z,21.02
2022-11-16T11:39:31.742Z,21.00
2022-11-16T11:42:35.760Z,20.92
2022-11-16T11:45:50.211Z,20.98
2022-11-16T11:49:05.903Z,20.95
2022-11-16T11:52:19.011Z,20.94
2022-11-16T11:55:22.909Z,20.92
2022-11-16T11:58:32.870Z,20.94
2022-11-16T12:02:06.407Z,20.97
2022-11-16T12:05:48.114Z,20.94
2022-11-16T12:09:14.654Z,20.91
2022-11-16T12:12:42.207Z,20.91
2022-11-16T12:16:08.853Z,20.91
2022-11-16T12:19:56.386Z,20.91
2022-11-16T12:23:32.893Z,20.90
2022-11-16T12:26:55.450Z,20.87
2022-11-16T12:30:11.455Z,20.87
2022-11-16T12:33:36.848Z,20.89
2022-11-16T12:37:01.032Z,20.89
2022-11-16T12:40:33.023Z,20.91
2022-11-16T12:43:49.418Z,20.87
2022-11-16T12:47:05.556Z,20.87
2022-11-16T12:50:33.548Z,20.90
2022-11-16T12:54:11.216Z,20.89
2022-11-16T12:57:26.058Z,20.87
2022-11-16T13:00:39.725Z,20.93
2022-11-16T13:03:53.744Z,21.02
2022-11-16T13:07:10.919Z,21.04
2022-11-16T13:10:22.724Z,21.07
2022-11-16T13:13:36.453Z,21.10
2022-11-16T13:16:41.704Z,21.14
2022-11-16T13:20:15.495Z,21.19
2022-11-16T13:23:44.405Z,21.22
2022-11-16T13:27:00.090Z,21.25
2022-11-16T13:30:17.395Z,21.28
2022-11-16T13:33:34.875Z,21.31
2022-11-16T13:36:47.724Z,21.30
2022-11-16T13:40:15.042Z,21.28
2022-11-16T13:43:23.024Z,21.19
2022-11-16T13:46:58.948Z,21.17
2022-11-16T13:50:06.740Z,21.06
2022-11-16T13:56:52.584Z,21.02
2022-11-16T14:00:12.625Z,21.05
2022-11-16T14:03:39.370Z,21.04
2022-11-16T14:07:00.762Z,21.01
2022-11-16T14:10:08.079Z,20.94
2022-11-16T14:13:40.739Z,20.98
2022-11-16T14:16:51.381Z,20.92
2022-11-16T14:19:56.025Z,20.90
2022-11-16T14:23:17.318Z,20.94
2022-11-16T14:26:34.112Z,20.89
2022-11-16T14:29:53.995Z,20.89
2022-11-16T14:33:00.035Z,20.86
2022-11-16T14:36:09.429Z,20.85
2022-11-16T14:39:30.808Z,20.87
2022-11-16T14:43:01.837Z,20.84
2022-11-16T14:46:22.023Z,20.81
2022-11-16T14:49:30.203Z,20.81
2022-11-16T14:52:41.208Z,20.81
2022-11-16T14:55:46.245Z,20.78
2022-11-16T14:58:55.961Z,20.80
2022-11-16T15:02:08.995Z,20.79
2022-11-16T15:05:18.951Z,20.79
2022-11-16T15:08:31.961Z,20.77
2022-11-16T15:11:58.557Z,20.76
2022-11-16T15:15:08.493Z,20.74
2022-11-16T15:18:18.243Z,20.74
2022-11-16T15:21:25.328Z,20.75
2022-11-16T15:24:32.347Z,20.74
2022-11-16T15:27:41.099Z,20.73
2022-11-16T15:30:49.836Z,20.73
2022-11-16T15:33:53.863Z,20.71
2022-11-16T15:36:58.924Z,20.72
2022-11-16T15:40:03.531Z,20.71
2022-11-16T15:43:09.004Z,20.70
2022-11-16T15:46:15.878Z,20.70
2022-11-16T15:49:30.399Z,20.72
2022-11-16T15:52:55.467Z,20.72
2022-11-16T15:55:59.014Z,20.66
2022-11-16T15:59:14.269Z,20.71
2022-11-16T16:02:23.173Z,20.67
2022-11-16T16:05:36.746Z,20.70
2022-11-16T16:08:41.962Z,20.67
2022-11-16T16:11:45.477Z,20.64
2022-11-16T16:14:50.748Z,20.66
2022-11-16T16:17:55.922Z,20.66
2022-11-16T16:21:00.176Z,20.63
2022-11-16T16:24:05.234Z,20.65
2022-11-16T16:27:19.189Z,20.67
2022-11-16T16:30:22.979Z,20.62
2022-11-16T16:33:28.801Z,20.61
2022-11-16T16:36:32.282Z,20.61
2022-11-16T16:39:38.797Z,20.63
2022-11-16T16:42:42.957Z,20.61
2022-11-16T16:45:46.528Z,20.61
2022-11-16T16:48:50.135Z,20.61
2022-11-16T16:51:54.586Z,20.61
2022-11-16T16:54:59.629Z,20.60
2022-11-16T16:58:03.183Z,20.58
2022-11-16T17:01:07.217Z,20.59
2022-11-16T17:04:10.561Z,20.60
2022-11-16T17:07:14.532Z,20.60
2022-11-16T17:10:19.516Z,20.60
2022-11-16T17:13:23.263Z,20.56
2022-11-16T17:16:27.156Z,20.55
2022-11-16T17:19:31.483Z,20.59
2022-11-16T17:22:35.714Z,20.63
2022-11-16T17:25:40.755Z,20.70
2022-11-16T17:28:44.374Z,20.73
2022-11-16T17:31:48.843Z,20.74
2022-11-16T17:34:52.334Z,20.77
2022-11-16T17:37:55.986Z,20.78
2022-11-16T17:41:06.920Z,20.83
2022-11-16T17:44:10.888Z,20.80
2022-11-16T17:47:14.734Z,20.81
2022-11-16T17:50:18.689Z,20.80
2022-11-16T17:53:22.231Z,20.80
2022-11-16T17:56:29.151Z,20.84
2022-11-16T17:59:32.925Z,20.82
2022-11-16T18:02:36.863Z,20.79
2022-11-16T18:05:40.223Z,20.76
2022-11-16T18:08:45.111Z,20.75
2022-11-16T18:11:51.526Z,20.75
2022-11-16T18:15:26.350Z,20.71
2022-11-16T18:18:18.815Z,20.69
2022-11-16T18:21:23.000Z,20.67
2022-11-16T18:24:26.375Z,20.66
2022-11-16T18:27:31.535Z,20.67
2022-11-16T18:30:35.047Z,20.64
2022-11-16T18:33:40.005Z,20.63
2022-11-16T18:36:43.255Z,20.62
2022-11-16T18:39:46.857Z,20.60
2022-11-16T18:42:52.334Z,20.61
2022-11-16T18:45:55.886Z,20.56
2022-11-16T18:49:00.818Z,20.57
2022-11-16T18:52:04.899Z,20.58
2022-11-16T18:55:09.273Z,20.60
2022-11-16T18:58:43.386Z,20.63
2022-11-16T19:01:38.405Z,20.61
2022-11-16T19:04:42.718Z,20.60
2022-11-16T19:07:46.979Z,20.62
2022-11-16T19:10:50.698Z,20.64
2022-11-16T19:14:00.949Z,20.69
2022-11-16T19:17:05.306Z,20.66
2022-11-16T19:20:10.773Z,20.68
2022-11-16T19:23:14.435Z,20.66
2022-11-16T19:26:24.109Z,20.67
2022-11-16T19:29:29.432Z,20.66
2022-11-16T19:32:33.469Z,20.63
2022-11-16T19:35:38.390Z,20.62
2022-11-16T19:38:42.637Z,20.60
2022-11-16T19:41:46.403Z,20.55
2022-11-16T19:44:51.177Z,20.55
2022-11-16T19:47:57.263Z,20.54
2022-11-16T19:51:06.624Z,20.52
2022-11-16T19:54:13.853Z,20.52
2022-11-16T19:57:20.468Z,20.56
2022-11-16T20:00:25.857Z,20.59
2022-11-16T20:03:29.252Z,20.61
2022-11-16T20:06:35.926Z,20.61
2022-11-16T20:09:39.433Z,20.58
2022-11-16T20:12:43.572Z,20.55
2022-11-16T20:15:48.307Z,20.55
2022-11-16T20:18:53.869Z,20.51
2022-11-16T20:21:59.469Z,20.49
2022-11-16T20:25:03.115Z,20.47
2022-11-16T20:28:06.359Z,20.46
2022-11-16T20:31:16.092Z,20.47
2022-11-16T20:34:21.986Z,20.47
2022-11-16T20:37:25.633Z,20.47
2022-11-16T20:40:28.914Z,20.48
2022-11-16T20:43:32.576Z,20.48
2022-11-16T20:46:38.436Z,20.49
2022-11-16T20:49:42.381Z,20.45
2022-11-16T20:52:51.421Z,20.45
2022-11-16T20:55:57.526Z,20.45
2022-11-16T20:59:01.608Z,20.44
2022-11-16T21:02:06.777Z,20.44
2022-11-16T21:05:10.859Z,20.47
2022-11-16T21:08:14.972Z,20.49
2022-11-16T21:11:20.991Z,20.51
2022-11-16T21:14:23.886Z,20.52
2022-11-16T21:17:28.435Z,20.52
2022-11-16T21:20:32.171Z,20.50
2022-11-16T21:23:37.588Z,20.55
2022-11-16T21:26:41.493Z,20.51
2022-11-16T21:29:45.014Z,20.50
2022-11-16T21:32:50.448Z,20.49
2022-11-16T21:35:55.016Z,20.47
2022-11-16T21:38:59.705Z,20.45
2022-11-16T21:42:03.347Z,20.43
2022-11-16T21:45:10.491Z,20.44
2022-11-16T21:48:15.773Z,20.46
2022-11-16T21:51:21.633Z,20.45
2022-11-16T21:54:45.203Z,20.42
2022-11-16T21:57:49.455Z,20.39
2022-11-16T22:00:55.936Z,20.43
2022-11-16T22:04:18.415Z,20.43
2022-11-16T22:07:33.844Z,20.41
2022-11-16T22:10:37.667Z,20.37
2022-11-16T22:13:42.470Z,20.38
2022-11-16T22:16:46.613Z,20.37
2022-11-16T22:19:51.471Z,20.40
2022-11-16T22:22:54.906Z,20.38
2022-11-16T22:26:03.910Z,20.42
2022-11-16T22:29:07.822Z,20.40
2022-11-16T22:32:11.935Z,20.42
2022-11-16T22:35:17.205Z,20.43
2022-11-16T22:38:20.420Z,20.39
2022-11-16T22:41:24.099Z,20.35
2022-11-16T22:44:27.322Z,20.33
2022-11-16T22:47:30.833Z,20.30
2022-11-16T22:50:35.624Z,20.32
2022-11-16T22:53:39.363Z,20.27
2022-11-16T22:56:43.432Z,20.24
2022-11-16T22:59:47.154Z,20.24
2022-11-16T23:02:50.498Z,20.23
2022-11-16T23:05:55.440Z,20.23
2022-11-16T23:08:58.783Z,20.20
2022-11-16T23:12:20.267Z,20.17
2022-11-16T23:15:41.202Z,20.14
2022-11-16T23:18:44.870Z,20.13
2022-11-16T23:22:06.986Z,20.15
2022-11-16T23:25:30.680Z,20.16
2022-11-16T23:28:36.673Z,20.19
2022-11-16T23:31:40.285Z,20.18
2022-11-16T23:34:43.460Z,20.20
2022-11-16T23:37:57.241Z,20.27
2022-11-16T23:41:20.745Z,20.23
2022-11-16T23:44:23.541Z,20.23
2022-11-16T23:47:27.194Z,20.24
2022-11-16T23:50:31.083Z,20.24
2022-11-16T23:53:36.195Z,20.27
2022-11-16T23:56:40.171Z,20.25
2022-11-16T23:59:43.409Z,20.23
